sensor_id;sensor_type;location;lat;lon;timestamp;P1;durP1;ratioP1;P2;durP2;ratioP2
10489;SDS011;35569;48.402;10.670;2022-09-30T00:00:03;3.27;;;3.17;;
10489;SDS011;35569;48.402;10.670;2022-09-30T00:00:39;3.03;;;2.92;;
10489;SDS011;35569;48.402;10.670;2022-09-30T00:01:14;2.90;;;2.80;;
10489;SDS011;35569;48.402;10.670;2022-09-30T00:01:46;3.20;;;3.10;;
10489;SDS011;35569;48.402;10.670;2022-09-30T00:02:21;3.17;;;3.08;;
10489;SDS011;35569;48.402;10.670;2022-09-30T00:02:56;2.90;;;2.80;;
10489;SDS011;35569;48.402;10.670;2022-09-30T00:03:28;2.97;;;2.87;;
10489;SDS011;35569;48.402;10.670;2022-09-30T00:04:00;3.47;;;3.35;;
10489;SDS011;35569;48.402;10.670;2022-09-30T00:04:35;3.17;;;3.08;;
10489;SDS011;35569;48.402;10.670;2022-09-30T00:05:08;3.50;;;3.40;;
10489;SDS011;35569;48.402;10.670;2022-09-30T00:05:40;3.50;;;3.33;;
10489;SDS011;35569;48.402;10.670;2022-09-30T00:06:15;3.60;;;3.50;;
10489;SDS011;35569;48.402;10.670;2022-09-30T00:06:47;4.10;;;4.00;;
10489;SDS011;35569;48.402;10.670;2022-09-30T00:07:19;4.27;;;4.17;;
10489;SDS011;35569;48.402;10.670;2022-09-30T00:07:54;4.18;;;3.97;;
10489;SDS011;35569;48.402;10.670;2022-09-30T00:08:26;3.88;;;3.72;;
10489;SDS011;35569;48.402;10.670;2022-09-30T00:08:59;4.00;;;3.90;;
10489;SDS011;35569;48.402;10.670;2022-09-30T00:09:37;3.65;;;3.55;;
10489;SDS011;35569;48.402;10.670;2022-09-30T00:10:09;4.00;;;3.90;;
10489;SDS011;35569;48.402;10.670;2022-09-30T00:10:45;3.92;;;3.80;;
10489;SDS011;35569;48.402;10.670;2022-09-30T00:11:18;3.88;;;3.78;;
10489;SDS011;35569;48.402;10.670;2022-09-30T00:11:51;4.00;;;3.90;;
10489;SDS011;35569;48.402;10.670;2022-09-30T00:12:26;3.90;;;3.80;;
10489;SDS011;35569;48.402;10.670;2022-09-30T00:12:58;3.58;;;3.47;;
10489;SDS011;35569;48.402;10.670;2022-09-30T00:13:31;4.13;;;4.03;;
10489;SDS011;35569;48.402;10.670;2022-09-30T00:14:03;4.10;;;4.00;;
10489;SDS011;35569;48.402;10.670;2022-09-30T00:14:39;3.72;;;3.63;;
10489;SDS011;35569;48.402;10.670;2022-09-30T00:15:11;4.28;;;4.18;;
10489;SDS011;35569;48.402;10.670;2022-09-30T00:15:45;4.32;;;4.13;;
10489;SDS011;35569;48.402;10.670;2022-09-30T00:16:21;4.30;;;4.20;;
10489;SDS011;35569;48.402;10.670;2022-09-30T00:16:54;4.70;;;4.35;;
10489;SDS011;35569;48.402;10.670;2022-09-30T00:17:26;4.18;;;4.07;;
10489;SDS011;35569;48.402;10.670;2022-09-30T00:18:01;3.88;;;3.78;;
10489;SDS011;35569;48.402;10.670;2022-09-30T00:18:33;5.05;;;4.85;;
10489;SDS011;35569;48.402;10.670;2022-09-30T00:19:06;3.97;;;3.88;;
10489;SDS011;35569;48.402;10.670;2022-09-30T00:19:41;4.50;;;4.30;;
10489;SDS011;35569;48.402;10.670;2022-09-30T00:20:14;3.75;;;3.65;;
10489;SDS011;35569;48.402;10.670;2022-09-30T00:20:46;4.80;;;4.60;;
10489;SDS011;35569;48.402;10.670;2022-09-30T00:21:21;4.13;;;4.03;;
10489;SDS011;35569;48.402;10.670;2022-09-30T00:21:54;4.18;;;4.07;;
10489;SDS011;35569;48.402;10.670;2022-09-30T00:22:26;4.40;;;4.23;;
10489;SDS011;35569;48.402;10.670;2022-09-30T00:23:01;4.35;;;4.25;;
10489;SDS011;35569;48.402;10.670;2022-09-30T00:23:33;5.38;;;5.07;;
10489;SDS011;35569;48.402;10.670;2022-09-30T00:24:07;4.65;;;4.45;;
10489;SDS011;35569;48.402;10.670;2022-09-30T00:24:44;4.17;;;4.07;;
10489;SDS011;35569;48.402;10.670;2022-09-30T00:25:17;4.50;;;4.40;;
10489;SDS011;35569;48.402;10.670;2022-09-30T00:25:49;4.60;;;4.45;;
10489;SDS011;35569;48.402;10.670;2022-09-30T00:26:24;4.30;;;4.15;;
10489;SDS011;35569;48.402;10.670;2022-09-30T00:26:57;5.03;;;4.83;;
10489;SDS011;35569;48.402;10.670;2022-09-30T00:27:29;4.88;;;4.47;;
10489;SDS011;35569;48.402;10.670;2022-09-30T00:28:04;4.30;;;4.20;;
10489;SDS011;35569;48.402;10.670;2022-09-30T00:28:38;4.53;;;4.35;;
10489;SDS011;35569;48.402;10.670;2022-09-30T00:29:12;4.25;;;4.15;;
10489;SDS011;35569;48.402;10.670;2022-09-30T00:29:47;4.45;;;4.25;;
10489;SDS011;35569;48.402;10.670;2022-09-30T00:30:19;4.10;;;4.00;;
10489;SDS011;35569;48.402;10.670;2022-09-30T00:30:51;4.75;;;4.55;;
10489;SDS011;35569;48.402;10.670;2022-09-30T00:31:27;4.85;;;4.60;;
10489;SDS011;35569;48.402;10.670;2022-09-30T00:32:01;4.43;;;4.30;;
10489;SDS011;35569;48.402;10.670;2022-09-30T00:32:33;4.90;;;4.70;;
10489;SDS011;35569;48.402;10.670;2022-09-30T00:33:08;4.30;;;4.13;;
10489;SDS011;35569;48.402;10.670;2022-09-30T00:33:40;4.80;;;4.50;;
10489;SDS011;35569;48.402;10.670;2022-09-30T00:34:13;4.28;;;4.07;;
10489;SDS011;35569;48.402;10.670;2022-09-30T00:34:50;4.30;;;4.20;;
10489;SDS011;35569;48.402;10.670;2022-09-30T00:35:22;4.28;;;4.13;;
10489;SDS011;35569;48.402;10.670;2022-09-30T00:35:55;4.30;;;4.20;;
10489;SDS011;35569;48.402;10.670;2022-09-30T00:36:27;4.50;;;4.40;;
10489;SDS011;35569;48.402;10.670;2022-09-30T00:37:02;4.53;;;4.38;;
10489;SDS011;35569;48.402;10.670;2022-09-30T00:37:34;4.65;;;4.20;;
10489;SDS011;35569;48.402;10.670;2022-09-30T00:38:09;4.43;;;4.28;;
10489;SDS011;35569;48.402;10.670;2022-09-30T00:38:41;4.60;;;4.43;;
10489;SDS011;35569;48.402;10.670;2022-09-30T00:39:14;4.35;;;4.15;;
10489;SDS011;35569;48.402;10.670;2022-09-30T00:39:52;4.70;;;4.55;;
10489;SDS011;35569;48.402;10.670;2022-09-30T00:40:25;4.90;;;4.70;;
10489;SDS011;35569;48.402;10.670;2022-09-30T00:40:57;5.10;;;5.00;;
10489;SDS011;35569;48.402;10.670;2022-09-30T00:41:31;4.95;;;4.85;;
10489;SDS011;35569;48.402;10.670;2022-09-30T00:42:08;4.60;;;4.47;;
10489;SDS011;35569;48.402;10.670;2022-09-30T00:42:42;5.60;;;5.35;;
10489;SDS011;35569;48.402;10.670;2022-09-30T00:43:15;4.97;;;4.78;;
10489;SDS011;35569;48.402;10.670;2022-09-30T00:43:51;4.90;;;4.63;;
10489;SDS011;35569;48.402;10.670;2022-09-30T00:45:16;4.88;;;4.72;;
10489;SDS011;35569;48.402;10.670;2022-09-30T00:45:52;5.78;;;5.47;;
10489;SDS011;35569;48.402;10.670;2022-09-30T00:46:29;4.45;;;4.35;;
10489;SDS011;35569;48.402;10.670;2022-09-30T00:47:03;5.10;;;4.90;;
10489;SDS011;35569;48.402;10.670;2022-09-30T00:47:39;4.80;;;4.60;;
10489;SDS011;35569;48.402;10.670;2022-09-30T00:48:18;4.90;;;4.70;;
10489;SDS011;35569;48.402;10.670;2022-09-30T00:48:53;4.30;;;4.20;;
10489;SDS011;35569;48.402;10.670;2022-09-30T00:49:25;5.10;;;4.90;;
10489;SDS011;35569;48.402;10.670;2022-09-30T00:50:02;4.35;;;4.15;;
10489;SDS011;35569;48.402;10.670;2022-09-30T00:50:41;3.97;;;3.88;;
10489;SDS011;35569;48.402;10.670;2022-09-30T00:51:19;3.78;;;3.67;;
10489;SDS011;35569;48.402;10.670;2022-09-30T00:51:55;3.20;;;3.10;;
10489;SDS011;35569;48.402;10.670;2022-09-30T00:52:29;3.40;;;3.30;;
10489;SDS011;35569;48.402;10.670;2022-09-30T00:53:04;3.40;;;3.30;;
10489;SDS011;35569;48.402;10.670;2022-09-30T00:53:43;2.80;;;2.80;;
10489;SDS011;35569;48.402;10.670;2022-09-30T00:54:19;3.58;;;3.47;;
10489;SDS011;35569;48.402;10.670;2022-09-30T00:54:56;3.20;;;3.10;;
10489;SDS011;35569;48.402;10.670;2022-09-30T00:55:34;3.35;;;3.25;;
10489;SDS011;35569;48.402;10.670;2022-09-30T00:56:10;2.80;;;2.70;;
10489;SDS011;35569;48.402;10.670;2022-09-30T00:56:45;3.20;;;3.10;;
10489;SDS011;35569;48.402;10.670;2022-09-30T00:57:22;2.50;;;2.50;;
10489;SDS011;35569;48.402;10.670;2022-09-30T00:57:54;2.63;;;2.63;;
10489;SDS011;35569;48.402;10.670;2022-09-30T00:58:29;2.83;;;2.70;;
10489;SDS011;35569;48.402;10.670;2022-09-30T00:59:08;2.47;;;2.47;;
10489;SDS011;35569;48.402;10.670;2022-09-30T00:59:42;2.67;;;2.58;;
10489;SDS011;35569;48.402;10.670;2022-09-30T01:00:16;2.60;;;2.60;;
10489;SDS011;35569;48.402;10.670;2022-09-30T01:00:51;3.10;;;3.00;;
10489;SDS011;35569;48.402;10.670;2022-09-30T01:01:23;2.40;;;2.40;;
10489;SDS011;35569;48.402;10.670;2022-09-30T01:01:58;2.65;;;2.55;;
10489;SDS011;35569;48.402;10.670;2022-09-30T01:02:31;3.25;;;3.15;;
10489;SDS011;35569;48.402;10.670;2022-09-30T01:03:03;2.90;;;2.80;;
10489;SDS011;35569;48.402;10.670;2022-09-30T01:03:40;3.10;;;2.90;;
10489;SDS011;35569;48.402;10.670;2022-09-30T01:04:15;3.10;;;3.00;;
10489;SDS011;35569;48.402;10.670;2022-09-30T01:04:51;3.17;;;3.08;;
10489;SDS011;35569;48.402;10.670;2022-09-30T01:05:26;2.53;;;2.42;;
10489;SDS011;35569;48.402;10.670;2022-09-30T01:05:58;2.40;;;2.33;;
10489;SDS011;35569;48.402;10.670;2022-09-30T01:06:33;2.33;;;2.33;;
10489;SDS011;35569;48.402;10.670;2022-09-30T01:07:06;2.85;;;2.75;;
10489;SDS011;35569;48.402;10.670;2022-09-30T01:07:41;2.63;;;2.53;;
10489;SDS011;35569;48.402;10.670;2022-09-30T01:08:14;2.33;;;2.33;;
10489;SDS011;35569;48.402;10.670;2022-09-30T01:08:51;2.70;;;2.67;;
10489;SDS011;35569;48.402;10.670;2022-09-30T01:09:23;2.88;;;2.78;;
10489;SDS011;35569;48.402;10.670;2022-09-30T01:09:58;2.60;;;2.50;;
10489;SDS011;35569;48.402;10.670;2022-09-30T01:10:32;2.70;;;2.60;;
10489;SDS011;35569;48.402;10.670;2022-09-30T01:11:06;2.20;;;2.20;;
10489;SDS011;35569;48.402;10.670;2022-09-30T01:11:39;2.17;;;2.17;;
10489;SDS011;35569;48.402;10.670;2022-09-30T01:12:12;2.70;;;2.60;;
10489;SDS011;35569;48.402;10.670;2022-09-30T01:12:48;2.60;;;2.50;;
10489;SDS011;35569;48.402;10.670;2022-09-30T01:13:21;2.50;;;2.40;;
10489;SDS011;35569;48.402;10.670;2022-09-30T01:13:59;2.70;;;2.60;;
10489;SDS011;35569;48.402;10.670;2022-09-30T01:14:32;2.70;;;2.60;;
10489;SDS011;35569;48.402;10.670;2022-09-30T01:15:06;2.67;;;2.63;;
10489;SDS011;35569;48.402;10.670;2022-09-30T01:15:45;2.20;;;2.10;;
10489;SDS011;35569;48.402;10.670;2022-09-30T01:16:28;3.10;;;3.00;;
10489;SDS011;35569;48.402;10.670;2022-09-30T01:17:08;2.65;;;2.55;;
10489;SDS011;35569;48.402;10.670;2022-09-30T01:17:46;2.72;;;2.63;;
10489;SDS011;35569;48.402;10.670;2022-09-30T01:18:23;2.95;;;2.85;;
10489;SDS011;35569;48.402;10.670;2022-09-30T01:19:05;3.38;;;2.28;;
10489;SDS011;35569;48.402;10.670;2022-09-30T01:21:31;3.00;;;2.90;;
10489;SDS011;35569;48.402;10.670;2022-09-30T01:22:20;2.72;;;2.63;;
10489;SDS011;35569;48.402;10.670;2022-09-30T01:23:08;2.65;;;2.65;;
10489;SDS011;35569;48.402;10.670;2022-09-30T01:24:01;2.80;;;2.80;;
10489;SDS011;35569;48.402;10.670;2022-09-30T01:25:05;2.85;;;2.75;;
10489;SDS011;35569;48.402;10.670;2022-09-30T01:27:04;3.15;;;2.95;;
10489;SDS011;35569;48.402;10.670;2022-09-30T01:29:07;2.67;;;2.57;;
10489;SDS011;35569;48.402;10.670;2022-09-30T01:30:02;3.28;;;3.17;;
10489;SDS011;35569;48.402;10.670;2022-09-30T01:30:46;3.10;;;3.00;;
10489;SDS011;35569;48.402;10.670;2022-09-30T01:31:30;3.00;;;2.90;;
10489;SDS011;35569;48.402;10.670;2022-09-30T01:32:14;3.25;;;3.15;;
10489;SDS011;35569;48.402;10.670;2022-09-30T01:33:54;3.45;;;3.35;;
10489;SDS011;35569;48.402;10.670;2022-09-30T01:34:33;3.15;;;3.05;;
10489;SDS011;35569;48.402;10.670;2022-09-30T01:35:13;3.47;;;3.38;;
10489;SDS011;35569;48.402;10.670;2022-09-30T01:36:03;3.60;;;3.50;;
10489;SDS011;35569;48.402;10.670;2022-09-30T01:36:42;3.55;;;3.45;;
10489;SDS011;35569;48.402;10.670;2022-09-30T01:37:22;3.33;;;3.22;;
10489;SDS011;35569;48.402;10.670;2022-09-30T01:37:58;3.10;;;3.00;;
10489;SDS011;35569;48.402;10.670;2022-09-30T01:38:37;3.10;;;3.00;;
10489;SDS011;35569;48.402;10.670;2022-09-30T01:39:21;3.35;;;3.25;;
10489;SDS011;35569;48.402;10.670;2022-09-30T01:40:01;3.30;;;3.20;;
10489;SDS011;35569;48.402;10.670;2022-09-30T01:40:38;3.22;;;3.13;;
10489;SDS011;35569;48.402;10.670;2022-09-30T01:41:20;3.05;;;2.97;;
10489;SDS011;35569;48.402;10.670;2022-09-30T01:41:58;2.70;;;2.60;;
10489;SDS011;35569;48.402;10.670;2022-09-30T01:42:39;2.90;;;2.80;;
10489;SDS011;35569;48.402;10.670;2022-09-30T01:43:22;3.00;;;2.90;;
10489;SDS011;35569;48.402;10.670;2022-09-30T01:43:59;3.25;;;3.15;;
10489;SDS011;35569;48.402;10.670;2022-09-30T01:44:36;3.20;;;3.10;;
10489;SDS011;35569;48.402;10.670;2022-09-30T01:45:15;3.10;;;3.00;;
10489;SDS011;35569;48.402;10.670;2022-09-30T01:45:55;2.95;;;2.85;;
10489;SDS011;35569;48.402;10.670;2022-09-30T01:46:33;3.00;;;2.90;;
10489;SDS011;35569;48.402;10.670;2022-09-30T01:47:14;2.90;;;2.80;;
10489;SDS011;35569;48.402;10.670;2022-09-30T01:47:49;3.25;;;3.15;;
10489;SDS011;35569;48.402;10.670;2022-09-30T01:48:26;3.13;;;3.03;;
10489;SDS011;35569;48.402;10.670;2022-09-30T01:49:07;2.95;;;2.85;;
10489;SDS011;35569;48.402;10.670;2022-09-30T01:49:44;3.27;;;3.17;;
10489;SDS011;35569;48.402;10.670;2022-09-30T01:50:22;2.97;;;2.88;;
10489;SDS011;35569;48.402;10.670;2022-09-30T01:50:57;2.60;;;2.50;;
10489;SDS011;35569;48.402;10.670;2022-09-30T01:51:34;2.55;;;2.55;;
10489;SDS011;35569;48.402;10.670;2022-09-30T01:52:10;3.20;;;3.10;;
10489;SDS011;35569;48.402;10.670;2022-09-30T01:52:47;3.10;;;3.00;;
10489;SDS011;35569;48.402;10.670;2022-09-30T01:53:26;3.07;;;2.97;;
10489;SDS011;35569;48.402;10.670;2022-09-30T01:54:02;2.50;;;2.50;;
10489;SDS011;35569;48.402;10.670;2022-09-30T01:54:38;2.63;;;2.63;;
10489;SDS011;35569;48.402;10.670;2022-09-30T01:55:16;2.33;;;2.33;;
10489;SDS011;35569;48.402;10.670;2022-09-30T01:55:52;3.10;;;3.00;;
10489;SDS011;35569;48.402;10.670;2022-09-30T01:56:30;2.80;;;2.80;;
10489;SDS011;35569;48.402;10.670;2022-09-30T01:57:09;2.75;;;2.65;;
10489;SDS011;35569;48.402;10.670;2022-09-30T01:57:46;2.60;;;2.50;;
10489;SDS011;35569;48.402;10.670;2022-09-30T01:58:21;2.55;;;2.55;;
10489;SDS011;35569;48.402;10.670;2022-09-30T01:59:01;3.00;;;2.90;;
10489;SDS011;35569;48.402;10.670;2022-09-30T01:59:40;3.10;;;3.00;;
10489;SDS011;35569;48.402;10.670;2022-09-30T02:00:16;3.15;;;3.05;;
10489;SDS011;35569;48.402;10.670;2022-09-30T02:00:54;2.85;;;2.75;;
10489;SDS011;35569;48.402;10.670;2022-09-30T02:01:31;3.00;;;2.90;;
10489;SDS011;35569;48.402;10.670;2022-09-30T02:02:05;2.50;;;2.50;;
10489;SDS011;35569;48.402;10.670;2022-09-30T02:02:43;2.50;;;2.40;;
10489;SDS011;35569;48.402;10.670;2022-09-30T02:03:20;2.75;;;2.75;;
10489;SDS011;35569;48.402;10.670;2022-09-30T02:03:56;2.87;;;2.77;;
10489;SDS011;35569;48.402;10.670;2022-09-30T02:04:33;2.92;;;2.83;;
10489;SDS011;35569;48.402;10.670;2022-09-30T02:05:08;3.10;;;3.00;;
10489;SDS011;35569;48.402;10.670;2022-09-30T02:05:44;2.90;;;2.80;;
10489;SDS011;35569;48.402;10.670;2022-09-30T02:06:24;2.50;;;2.50;;
10489;SDS011;35569;48.402;10.670;2022-09-30T02:06:58;2.30;;;2.30;;
10489;SDS011;35569;48.402;10.670;2022-09-30T02:07:43;2.90;;;2.80;;
10489;SDS011;35569;48.402;10.670;2022-09-30T02:08:18;2.65;;;2.55;;
10489;SDS011;35569;48.402;10.670;2022-09-30T02:08:53;2.80;;;2.70;;
10489;SDS011;35569;48.402;10.670;2022-09-30T02:09:31;2.90;;;2.80;;
10489;SDS011;35569;48.402;10.670;2022-09-30T02:10:08;2.80;;;2.70;;
10489;SDS011;35569;48.402;10.670;2022-09-30T02:10:44;3.00;;;2.90;;
10489;SDS011;35569;48.402;10.670;2022-09-30T02:11:22;3.00;;;2.90;;
10489;SDS011;35569;48.402;10.670;2022-09-30T02:11:56;2.75;;;2.75;;
10489;SDS011;35569;48.402;10.670;2022-09-30T02:12:31;3.10;;;3.00;;
10489;SDS011;35569;48.402;10.670;2022-09-30T02:13:11;2.50;;;2.50;;
10489;SDS011;35569;48.402;10.670;2022-09-30T02:13:46;3.03;;;2.83;;
10489;SDS011;35569;48.402;10.670;2022-09-30T02:14:25;2.50;;;2.40;;
10489;SDS011;35569;48.402;10.670;2022-09-30T02:15:02;2.65;;;2.55;;
10489;SDS011;35569;48.402;10.670;2022-09-30T02:15:40;2.60;;;2.50;;
10489;SDS011;35569;48.402;10.670;2022-09-30T02:16:18;3.17;;;3.07;;
10489;SDS011;35569;48.402;10.670;2022-09-30T02:16:54;2.40;;;2.30;;
10489;SDS011;35569;48.402;10.670;2022-09-30T02:17:33;2.80;;;2.70;;
10489;SDS011;35569;48.402;10.670;2022-09-30T02:18:12;2.63;;;2.53;;
10489;SDS011;35569;48.402;10.670;2022-09-30T02:18:51;2.65;;;2.55;;
10489;SDS011;35569;48.402;10.670;2022-09-30T02:19:28;2.83;;;2.80;;
10489;SDS011;35569;48.402;10.670;2022-09-30T02:20:03;2.93;;;2.73;;
10489;SDS011;35569;48.402;10.670;2022-09-30T02:20:39;2.55;;;2.45;;
10489;SDS011;35569;48.402;10.670;2022-09-30T02:21:16;2.90;;;2.80;;
10489;SDS011;35569;48.402;10.670;2022-09-30T02:21:52;2.60;;;2.50;;
10489;SDS011;35569;48.402;10.670;2022-09-30T02:22:29;2.80;;;2.70;;
10489;SDS011;35569;48.402;10.670;2022-09-30T02:23:08;2.45;;;2.35;;
10489;SDS011;35569;48.402;10.670;2022-09-30T02:23:43;2.00;;;1.90;;
10489;SDS011;35569;48.402;10.670;2022-09-30T02:24:18;2.88;;;2.80;;
10489;SDS011;35569;48.402;10.670;2022-09-30T02:24:56;2.72;;;2.63;;
10489;SDS011;35569;48.402;10.670;2022-09-30T02:25:31;3.17;;;3.07;;
10489;SDS011;35569;48.402;10.670;2022-09-30T02:26:08;2.83;;;2.75;;
10489;SDS011;35569;48.402;10.670;2022-09-30T02:26:44;2.83;;;2.73;;
10489;SDS011;35569;48.402;10.670;2022-09-30T02:27:18;2.63;;;2.50;;
10489;SDS011;35569;48.402;10.670;2022-09-30T02:27:59;3.10;;;3.00;;
10489;SDS011;35569;48.402;10.670;2022-09-30T02:28:36;3.10;;;3.00;;
10489;SDS011;35569;48.402;10.670;2022-09-30T02:29:14;3.10;;;3.00;;
10489;SDS011;35569;48.402;10.670;2022-09-30T02:29:50;2.33;;;2.33;;
10489;SDS011;35569;48.402;10.670;2022-09-30T02:30:25;3.27;;;3.17;;
10489;SDS011;35569;48.402;10.670;2022-09-30T02:31:00;2.50;;;2.50;;
10489;SDS011;35569;48.402;10.670;2022-09-30T02:31:37;3.30;;;3.20;;
10489;SDS011;35569;48.402;10.670;2022-09-30T02:32:15;2.80;;;2.70;;
10489;SDS011;35569;48.402;10.670;2022-09-30T02:32:52;3.10;;;3.00;;
10489;SDS011;35569;48.402;10.670;2022-09-30T02:33:28;2.55;;;2.50;;
10489;SDS011;35569;48.402;10.670;2022-09-30T02:34:06;2.80;;;2.70;;
10489;SDS011;35569;48.402;10.670;2022-09-30T02:34:40;3.22;;;3.13;;
10489;SDS011;35569;48.402;10.670;2022-09-30T02:35:16;3.00;;;2.90;;
10489;SDS011;35569;48.402;10.670;2022-09-30T02:35:55;3.03;;;2.92;;
10489;SDS011;35569;48.402;10.670;2022-09-30T02:36:30;3.10;;;3.00;;
10489;SDS011;35569;48.402;10.670;2022-09-30T02:37:04;3.10;;;3.00;;
10489;SDS011;35569;48.402;10.670;2022-09-30T02:37:42;3.13;;;3.00;;
10489;SDS011;35569;48.402;10.670;2022-09-30T02:38:17;3.17;;;3.08;;
10489;SDS011;35569;48.402;10.670;2022-09-30T02:38:53;2.57;;;2.50;;
10489;SDS011;35569;48.402;10.670;2022-09-30T02:39:35;2.30;;;2.30;;
10489;SDS011;35569;48.402;10.670;2022-09-30T02:40:13;2.80;;;2.70;;
10489;SDS011;35569;48.402;10.670;2022-09-30T02:40:49;2.88;;;2.78;;
10489;SDS011;35569;48.402;10.670;2022-09-30T02:41:25;2.60;;;2.60;;
10489;SDS011;35569;48.402;10.670;2022-09-30T02:42:02;2.83;;;2.72;;
10489;SDS011;35569;48.402;10.670;2022-09-30T02:42:39;2.70;;;2.60;;
10489;SDS011;35569;48.402;10.670;2022-09-30T02:43:14;2.90;;;2.80;;
10489;SDS011;35569;48.402;10.670;2022-09-30T02:43:47;2.90;;;2.80;;
10489;SDS011;35569;48.402;10.670;2022-09-30T02:44:19;2.92;;;2.83;;
10489;SDS011;35569;48.402;10.670;2022-09-30T02:44:55;2.80;;;2.70;;
10489;SDS011;35569;48.402;10.670;2022-09-30T02:45:31;2.80;;;2.70;;
10489;SDS011;35569;48.402;10.670;2022-09-30T02:46:14;2.90;;;2.80;;
10489;SDS011;35569;48.402;10.670;2022-09-30T02:46:55;2.60;;;2.50;;
10489;SDS011;35569;48.402;10.670;2022-09-30T02:47:33;2.95;;;2.85;;
10489;SDS011;35569;48.402;10.670;2022-09-30T02:48:22;2.70;;;2.60;;
10489;SDS011;35569;48.402;10.670;2022-09-30T02:48:59;2.95;;;2.85;;
10489;SDS011;35569;48.402;10.670;2022-09-30T02:49:35;2.95;;;2.85;;
10489;SDS011;35569;48.402;10.670;2022-09-30T02:50:14;2.35;;;2.25;;
10489;SDS011;35569;48.402;10.670;2022-09-30T02:50:47;2.50;;;2.40;;
10489;SDS011;35569;48.402;10.670;2022-09-30T02:51:23;3.20;;;3.10;;
10489;SDS011;35569;48.402;10.670;2022-09-30T02:52:05;2.97;;;2.88;;
10489;SDS011;35569;48.402;10.670;2022-09-30T02:52:45;2.92;;;2.83;;
10489;SDS011;35569;48.402;10.670;2022-09-30T02:53:22;2.70;;;2.60;;
10489;SDS011;35569;48.402;10.670;2022-09-30T02:54:01;2.80;;;2.70;;
10489;SDS011;35569;48.402;10.670;2022-09-30T02:54:37;2.90;;;2.80;;
10489;SDS011;35569;48.402;10.670;2022-09-30T02:55:17;2.88;;;2.78;;
10489;SDS011;35569;48.402;10.670;2022-09-30T02:56:01;2.80;;;2.72;;
10489;SDS011;35569;48.402;10.670;2022-09-30T02:56:41;3.10;;;3.00;;
10489;SDS011;35569;48.402;10.670;2022-09-30T02:57:21;3.00;;;2.90;;
10489;SDS011;35569;48.402;10.670;2022-09-30T02:58:03;2.58;;;2.58;;
10489;SDS011;35569;48.402;10.670;2022-09-30T02:58:39;3.50;;;3.40;;
10489;SDS011;35569;48.402;10.670;2022-09-30T02:59:13;3.05;;;2.85;;
10489;SDS011;35569;48.402;10.670;2022-09-30T02:59:49;3.83;;;3.72;;
10489;SDS011;35569;48.402;10.670;2022-09-30T03:00:22;3.60;;;3.50;;
10489;SDS011;35569;48.402;10.670;2022-09-30T03:00:55;3.35;;;3.05;;
10489;SDS011;35569;48.402;10.670;2022-09-30T03:01:32;3.40;;;3.30;;
10489;SDS011;35569;48.402;10.670;2022-09-30T03:02:10;2.80;;;2.70;;
10489;SDS011;35569;48.402;10.670;2022-09-30T03:02:45;3.40;;;3.20;;
10489;SDS011;35569;48.402;10.670;2022-09-30T03:03:24;3.00;;;2.90;;
10489;SDS011;35569;48.402;10.670;2022-09-30T03:04:01;2.80;;;2.80;;
10489;SDS011;35569;48.402;10.670;2022-09-30T03:04:34;3.17;;;3.08;;
10489;SDS011;35569;48.402;10.670;2022-09-30T03:05:15;3.40;;;3.30;;
10489;SDS011;35569;48.402;10.670;2022-09-30T03:05:48;3.37;;;3.27;;
10489;SDS011;35569;48.402;10.670;2022-09-30T03:06:22;2.93;;;2.83;;
10489;SDS011;35569;48.402;10.670;2022-09-30T03:06:57;3.33;;;3.23;;
10489;SDS011;35569;48.402;10.670;2022-09-30T03:07:32;3.50;;;3.40;;
10489;SDS011;35569;48.402;10.670;2022-09-30T03:08:14;3.58;;;3.47;;
10489;SDS011;35569;48.402;10.670;2022-09-30T03:08:50;3.53;;;3.42;;
10489;SDS011;35569;48.402;10.670;2022-09-30T03:09:23;3.47;;;3.38;;
10489;SDS011;35569;48.402;10.670;2022-09-30T03:09:56;3.80;;;3.70;;
10489;SDS011;35569;48.402;10.670;2022-09-30T03:10:34;3.30;;;3.20;;
10489;SDS011;35569;48.402;10.670;2022-09-30T03:11:06;3.50;;;3.40;;
10489;SDS011;35569;48.402;10.670;2022-09-30T03:11:42;3.40;;;3.30;;
10489;SDS011;35569;48.402;10.670;2022-09-30T03:12:21;3.47;;;3.38;;
10489;SDS011;35569;48.402;10.670;2022-09-30T03:13:08;3.35;;;3.25;;
10489;SDS011;35569;48.402;10.670;2022-09-30T03:15:07;3.40;;;3.30;;
10489;SDS011;35569;48.402;10.670;2022-09-30T03:15:56;3.20;;;3.10;;
10489;SDS011;35569;48.402;10.670;2022-09-30T03:16:47;3.97;;;3.88;;
10489;SDS011;35569;48.402;10.670;2022-09-30T03:17:44;3.42;;;3.33;;
10489;SDS011;35569;48.402;10.670;2022-09-30T03:18:32;3.25;;;3.15;;
10489;SDS011;35569;48.402;10.670;2022-09-30T03:19:26;4.38;;;4.13;;
10489;SDS011;35569;48.402;10.670;2022-09-30T03:20:12;3.58;;;3.47;;
10489;SDS011;35569;48.402;10.670;2022-09-30T03:20:56;3.20;;;3.10;;
10489;SDS011;35569;48.402;10.670;2022-09-30T03:21:49;2.92;;;2.83;;
10489;SDS011;35569;48.402;10.670;2022-09-30T03:22:35;3.20;;;3.10;;
10489;SDS011;35569;48.402;10.670;2022-09-30T03:23:26;3.35;;;3.25;;
10489;SDS011;35569;48.402;10.670;2022-09-30T03:24:23;3.30;;;3.20;;
10489;SDS011;35569;48.402;10.670;2022-09-30T03:25:18;3.83;;;3.72;;
10489;SDS011;35569;48.402;10.670;2022-09-30T03:25:58;3.92;;;3.78;;
10489;SDS011;35569;48.402;10.670;2022-09-30T03:26:39;3.60;;;3.50;;
10489;SDS011;35569;48.402;10.670;2022-09-30T03:27:15;4.05;;;3.95;;
10489;SDS011;35569;48.402;10.670;2022-09-30T03:28:02;4.15;;;4.05;;
10489;SDS011;35569;48.402;10.670;2022-09-30T03:28:40;5.10;;;4.90;;
10489;SDS011;35569;48.402;10.670;2022-09-30T03:29:21;4.10;;;4.00;;
10489;SDS011;35569;48.402;10.670;2022-09-30T03:30:00;4.95;;;4.70;;
10489;SDS011;35569;48.402;10.670;2022-09-30T03:30:37;4.55;;;4.35;;
10489;SDS011;35569;48.402;10.670;2022-09-30T03:31:19;4.15;;;3.95;;
10489;SDS011;35569;48.402;10.670;2022-09-30T03:31:59;4.63;;;4.43;;
10489;SDS011;35569;48.402;10.670;2022-09-30T03:32:40;4.95;;;4.75;;
10489;SDS011;35569;48.402;10.670;2022-09-30T03:33:26;4.40;;;4.25;;
10489;SDS011;35569;48.402;10.670;2022-09-30T03:34:08;4.17;;;4.03;;
10489;SDS011;35569;48.402;10.670;2022-09-30T03:34:56;4.15;;;3.95;;
10489;SDS011;35569;48.402;10.670;2022-09-30T03:35:35;4.90;;;4.70;;
10489;SDS011;35569;48.402;10.670;2022-09-30T03:36:23;4.88;;;4.68;;
10489;SDS011;35569;48.402;10.670;2022-09-30T03:37:01;4.32;;;4.15;;
10489;SDS011;35569;48.402;10.670;2022-09-30T03:37:42;5.60;;;5.40;;
10489;SDS011;35569;48.402;10.670;2022-09-30T03:38:23;4.80;;;4.70;;
10489;SDS011;35569;48.402;10.670;2022-09-30T03:39:07;5.37;;;5.17;;
10489;SDS011;35569;48.402;10.670;2022-09-30T03:39:48;4.78;;;4.57;;
10489;SDS011;35569;48.402;10.670;2022-09-30T03:40:26;4.53;;;4.40;;
10489;SDS011;35569;48.402;10.670;2022-09-30T03:41:06;4.53;;;4.32;;
10489;SDS011;35569;48.402;10.670;2022-09-30T03:41:45;4.45;;;4.30;;
10489;SDS011;35569;48.402;10.670;2022-09-30T03:42:26;4.63;;;4.43;;
10489;SDS011;35569;48.402;10.670;2022-09-30T03:43:02;4.78;;;4.63;;
10489;SDS011;35569;48.402;10.670;2022-09-30T03:43:41;4.30;;;4.13;;
10489;SDS011;35569;48.402;10.670;2022-09-30T03:44:19;5.05;;;4.82;;
10489;SDS011;35569;48.402;10.670;2022-09-30T03:44:56;4.22;;;4.03;;
10489;SDS011;35569;48.402;10.670;2022-09-30T03:45:36;4.13;;;4.03;;
10489;SDS011;35569;48.402;10.670;2022-09-30T03:46:15;4.82;;;4.53;;
10489;SDS011;35569;48.402;10.670;2022-09-30T03:46:53;4.20;;;4.10;;
10489;SDS011;35569;48.402;10.670;2022-09-30T03:47:28;4.50;;;4.40;;
10489;SDS011;35569;48.402;10.670;2022-09-30T03:48:05;4.10;;;4.00;;
10489;SDS011;35569;48.402;10.670;2022-09-30T03:48:42;4.30;;;4.20;;